地図

経路データ

SID SEASON NUMBER BASIN SUBBASIN NAME ISO_TIME NATURE LAT LON WMO_WIND WMO_PRES WMO_AGENCY TRACK_TYPE DIST2LAND LANDFALL IFLAG USA_AGENCY USA_ATCF_ID USA_LAT USA_LON USA_RECORD USA_STATUS USA_WIND USA_PRES USA_SSHS USA_R34_NE USA_R34_SE USA_R34_SW USA_R34_NW USA_R50_NE USA_R50_SE USA_R50_SW USA_R50_NW USA_R64_NE USA_R64_SE USA_R64_SW USA_R64_NW USA_POCI USA_ROCI USA_RMW USA_EYE TOKYO_LAT TOKYO_LON TOKYO_GRADE TOKYO_WIND TOKYO_PRES TOKYO_R50_DIR TOKYO_R50_LONG TOKYO_R50_SHORT TOKYO_R30_DIR TOKYO_R30_LONG TOKYO_R30_SHORT TOKYO_LAND CMA_LAT CMA_LON CMA_CAT CMA_WIND CMA_PRES HKO_LAT HKO_LON HKO_CAT HKO_WIND HKO_PRES NEWDELHI_LAT NEWDELHI_LON NEWDELHI_GRADE NEWDELHI_WIND NEWDELHI_PRES NEWDELHI_CI NEWDELHI_DP NEWDELHI_POCI REUNION_LAT REUNION_LON REUNION_TYPE REUNION_WIND REUNION_PRES REUNION_TNUM REUNION_CI REUNION_RMW REUNION_R34_NE REUNION_R34_SE REUNION_R34_SW REUNION_R34_NW REUNION_R50_NE REUNION_R50_SE REUNION_R50_SW REUNION_R50_NW REUNION_R64_NE REUNION_R64_SE REUNION_R64_SW REUNION_R64_NW BOM_LAT BOM_LON BOM_TYPE BOM_WIND BOM_PRES BOM_TNUM BOM_CI BOM_RMW BOM_R34_NE BOM_R34_SE BOM_R34_SW BOM_R34_NW BOM_R50_NE BOM_R50_SE BOM_R50_SW BOM_R50_NW BOM_R64_NE BOM_R64_SE BOM_R64_SW BOM_R64_NW BOM_ROCI BOM_POCI BOM_EYE BOM_POS_METHOD BOM_PRES_METHOD NADI_LAT NADI_LON NADI_CAT NADI_WIND NADI_PRES WELLINGTON_LAT WELLINGTON_LON WELLINGTON_WIND WELLINGTON_PRES DS824_LAT DS824_LON DS824_STAGE DS824_WIND DS824_PRES TD9636_LAT TD9636_LON TD9636_STAGE TD9636_WIND TD9636_PRES TD9635_LAT TD9635_LON TD9635_WIND TD9635_PRES TD9635_ROCI NEUMANN_LAT NEUMANN_LON NEUMANN_CLASS NEUMANN_WIND NEUMANN_PRES MLC_LAT MLC_LON MLC_CLASS MLC_WIND MLC_PRES USA_GUST BOM_GUST BOM_GUST_PER REUNION_GUST REUNION_GUST_PER USA_SEAHGT USA_SEARAD_NE USA_SEARAD_SE USA_SEARAD_SW USA_SEARAD_NW STORM_SPEED STORM_DIR
2016308N13088 2016 85 NI BB NOT_NAMED 2016-11-02 18:00:00 NR 12.7000 88.0000 25 1004 newdelhi main 752 702 ____O_________ -1 12.7000 88.0000 D 25 1004 1.50000 4 10 279
2016308N13088 2016 85 NI BB NOT_NAMED 2016-11-02 21:00:00 NR 12.7784 87.4999 main 702 646 ____P_________ -1 12.7784 87.4999 D 25 1004 4 10 287
2016308N13088 2016 85 NI BB NOT_NAMED 2016-11-03 00:00:00 NR 13.0000 87.0000 25 1004 newdelhi main 646 576 ____O_________ -1 13.0000 87.0000 D 25 1004 1.50000 4 12 303
2016308N13088 2016 85 NI BB NOT_NAMED 2016-11-03 03:00:00 NR 13.4000 86.5000 25 1004 newdelhi main 576 513 ____O_________ -1 13.4000 86.5000 D 25 1004 1.50000 4 12 306
2016308N13088 2016 85 NI BB NOT_NAMED 2016-11-03 06:00:00 NR 13.7000 86.0000 25 1004 newdelhi main 513 466 ____O_________ -1 13.7000 86.0000 D 25 1004 1.50000 4 10 306
2016308N13088 2016 85 NI BB NOT_NAMED 2016-11-03 09:00:00 NR 13.9669 85.6987 main 466 435 ____P_________ -1 13.9669 85.6987 D 25 1004 4 7 316
2016308N13088 2016 85 NI BB NOT_NAMED 2016-11-03 12:00:00 NR 14.2000 85.5000 25 1004 newdelhi main 435 396 ____O_________ -1 14.2000 85.5000 D 25 1004 1.50000 4 6 311
2016308N13088 2016 85 NI BB NOT_NAMED 2016-11-03 15:00:00 NR 14.3700 85.2274 main 396 365 ____P_________ -1 14.3700 85.2274 D 25 1004 4 6 310
2016308N13088 2016 85 NI BB NOT_NAMED 2016-11-03 18:00:00 NR 14.6000 85.0000 25 1004 newdelhi main 365 330 ____O_________ -1 14.6000 85.0000 D 25 1004 1.50000 4 7 332
2016308N13088 2016 85 NI BB NOT_NAMED 2016-11-03 21:00:00 NR 15.0056 84.8795 main 330 290 ____P_________ -1 15.0056 84.8795 D 25 1003 4 9 348
2016308N13088 2016 85 NI BB NOT_NAMED 2016-11-04 00:00:00 NR 15.5000 84.8000 25 1002 newdelhi main 290 239 ____O_________ -1 15.5000 84.8000 D 25 1002 1.50000 4 10 350
2016308N13088 2016 85 NI BB NOT_NAMED 2016-11-04 03:00:00 NR 16.0000 84.7000 25 1002 newdelhi main 239 239 ____O_________ -1 16.0000 84.7000 D 25 1002 1.50000 4 5 349
2016308N13088 2016 85 NI BB NOT_NAMED 2016-11-04 06:00:00 NR 16.0000 84.7000 25 1000 newdelhi main 239 231 ____O_________ -1 16.0000 84.7000 D 25 1000 1.50000 4 1 0
2016308N13088 2016 85 NI BB NOT_NAMED 2016-11-04 09:00:00 NR 16.0988 84.6796 main 231 215 ____P_________ -1 16.0988 84.6796 D 25 1000 4 3 0
2016308N13088 2016 85 NI BB NOT_NAMED 2016-11-04 12:00:00 NR 16.3000 84.7000 25 1000 newdelhi main 215 200 ____O_________ -1 16.3000 84.7000 D 25 1000 1.50000 4 5 11
2016308N13088 2016 85 NI BB NOT_NAMED 2016-11-04 15:00:00 NR 16.5623 84.7753 main 200 183 ____P_________ -1 16.5623 84.7753 D 25 1000 4 7 26
2016308N13088 2016 85 NI BB NOT_NAMED 2016-11-04 18:00:00 NR 16.9000 85.0000 25 1000 newdelhi main 183 169 ____O_________ -1 16.9000 85.0000 D 25 1000 1.50000 4 9 39
2016308N13088 2016 85 NI BB NOT_NAMED 2016-11-04 21:00:00 NR 17.2450 85.3507 main 184 176 ____P_________ -1 17.2450 85.3507 D 25 1000 4 13 50
2016308N13088 2016 85 NI BB NOT_NAMED 2016-11-05 00:00:00 NR 17.7000 86.0000 25 1000 newdelhi main 192 192 ____O_________ -1 17.7000 86.0000 D 25 1000 1.50000 4 19 56
2016308N13088 2016 85 NI BB NOT_NAMED 2016-11-05 03:00:00 NR 18.3000 87.0000 25 1000 newdelhi main 200 179 ____O_________ -1 18.3000 87.0000 D 25 1000 1.50000 4 12 50
2016308N13088 2016 85 NI BB NOT_NAMED 2016-11-05 06:00:00 NR 18.5000 87.0000 25 1000 newdelhi main 179 172 ____O_________ -1 18.5000 87.0000 D 25 1000 1.50000 4 8 58
2016308N13088 2016 85 NI BB NOT_NAMED 2016-11-05 09:00:00 NR 18.7413 87.7369 main 199 198 ____P_________ -1 18.7413 87.7369 D 25 1000 4 17 73
2016308N13088 2016 85 NI BB NOT_NAMED 2016-11-05 12:00:00 NR 19.0000 88.7000 25 1000 newdelhi main 254 254 ____O_________ -1 19.0000 88.7000 D 25 1000 1.50000 4 14 70
2016308N13088 2016 85 NI BB NOT_NAMED 2016-11-05 15:00:00 NR 19.2114 89.1161 main 268 236 ____P_________ -1 19.2114 89.1161 D 25 1000 4 9 57
2016308N13088 2016 85 NI BB NOT_NAMED 2016-11-05 18:00:00 NR 19.5000 89.5000 25 1000 newdelhi main 238 212 ____O_________ -1 19.5000 89.5000 D 25 1000 1.50000 4 13 55
2016308N13088 2016 85 NI BB NOT_NAMED 2016-11-05 21:00:00 NR 19.9666 90.2527 main 201 138 ____P_________ -1 19.9666 90.2527 D 25 1000 4 17 55
2016308N13088 2016 85 NI BB NOT_NAMED 2016-11-06 00:00:00 NR 20.5000 91.0000 25 1000 newdelhi main 138 66 ____O_________ -1 20.5000 91.0000 D 25 1000 1.50000 4 16 49
2016308N13088 2016 85 NI BB NOT_NAMED 2016-11-06 03:00:00 NR 21.0000 91.5000 25 1000 newdelhi main 66 10 ____O_________ -1 21.0000 91.5000 D 25 1000 1.50000 4 13 37
2016308N13088 2016 85 NI BB NOT_NAMED 2016-11-06 06:00:00 NR 21.5000 91.8000 25 1002 newdelhi main 10 10 ____O_________ -1 21.5000 91.8000 D 25 1002 1.50000 4 7 32
2016308N13088 2016 85 NI BB NOT_NAMED 2016-11-06 09:00:00 NR 21.6000 91.9000 25 1003 newdelhi main 10 ____O_________ -1 21.6000 91.9000 D 25 1003 1.50000 3 3 43

IBTrACS Databaseについて

本データベースは、米国NOAAが公開する1842年以降の世界の熱帯低気圧のベストトラックデータアーカイブInternational Best Track Archive for Climate Stewardship (IBTrACS)を、ウェブで閲覧しやすい形式に変換したものです。

最終更新日:2021-12-01